createdAt,value
2022-10-31T00:08:26.743Z,29.00
2022-10-31T00:18:30.801Z,31.20
2022-10-31T00:28:34.932Z,30.10
2022-10-31T00:38:38.090Z,27.90
2022-10-31T00:48:41.899Z,27.30
2022-10-31T00:58:45.503Z,28.50
2022-10-31T01:08:48.535Z,27.10
2022-10-31T01:18:53.071Z,27.10
2022-10-31T01:28:58.594Z,27.10
2022-10-31T01:39:05.539Z,27.30
2022-10-31T01:49:12.808Z,26.80
2022-10-31T01:59:20.118Z,25.30
2022-10-31T02:09:25.927Z,25.10
2022-10-31T02:19:33.150Z,23.00
2022-10-31T02:30:10.770Z,24.90
2022-10-31T02:40:13.951Z,28.40
2022-10-31T02:50:23.080Z,27.50
2022-10-31T03:00:27.926Z,27.30
2022-10-31T03:10:32.600Z,25.90
2022-10-31T03:20:41.136Z,27.60
2022-10-31T03:30:46.693Z,28.10
2022-10-31T03:40:54.764Z,24.40
2022-10-31T03:50:59.001Z,24.90
2022-10-31T04:01:06.675Z,22.70
2022-10-31T04:11:12.037Z,22.80
2022-10-31T04:21:15.517Z,26.20
2022-10-31T04:31:19.100Z,29.30
2022-10-31T04:41:22.615Z,23.40
2022-10-31T04:51:26.474Z,23.60
2022-10-31T05:01:29.741Z,21.80
2022-10-31T05:11:33.584Z,20.90
2022-10-31T05:21:43.216Z,25.50
2022-10-31T05:31:46.789Z,22.20
2022-10-31T05:41:50.255Z,22.20
2022-10-31T05:51:54.110Z,19.90
2022-10-31T06:01:57.713Z,22.00
2022-10-31T06:12:01.265Z,20.90
2022-10-31T06:22:04.847Z,22.20
2022-10-31T06:32:12.096Z,23.00
2022-10-31T06:42:16.220Z,22.00
2022-10-31T06:52:19.746Z,20.80
2022-10-31T07:02:23.864Z,23.50
2022-10-31T07:12:27.144Z,19.10
2022-10-31T07:22:33.720Z,19.60
2022-10-31T07:32:39.760Z,19.40
2022-10-31T07:42:46.878Z,19.40
2022-10-31T07:52:59.113Z,19.00
2022-10-31T08:03:04.825Z,17.00
2022-10-31T08:13:10.783Z,16.70
2022-10-31T08:23:14.537Z,15.00
2022-10-31T08:33:19.497Z,13.70
2022-10-31T08:43:22.980Z,12.50
2022-10-31T08:53:27.147Z,12.70
2022-10-31T09:03:32.636Z,14.20
2022-10-31T09:13:40.980Z,14.50
2022-10-31T09:23:45.097Z,11.40
2022-10-31T09:33:48.590Z,10.90
2022-10-31T09:44:08.353Z,11.40
2022-10-31T09:54:16.992Z,10.10
2022-10-31T10:04:31.105Z,9.10
2022-10-31T10:14:43.362Z,8.90
2022-10-31T10:25:08.638Z,9.90
2022-10-31T10:35:18.322Z,7.90
2022-10-31T10:45:39.783Z,8.60
2022-10-31T10:55:49.712Z,8.50
2022-10-31T11:05:55.126Z,7.70
2022-10-31T11:15:58.210Z,7.90
2022-10-31T11:26:04.500Z,8.00
2022-10-31T11:36:16.968Z,7.90
2022-10-31T11:46:21.084Z,8.10
2022-10-31T11:56:25.820Z,8.20
2022-10-31T12:06:28.943Z,9.60
2022-10-31T12:16:32.179Z,8.30
2022-10-31T12:26:38.078Z,8.40
2022-10-31T12:36:44.708Z,9.30
2022-10-31T12:46:53.363Z,8.50
2022-10-31T12:56:55.974Z,8.00
2022-10-31T13:07:03.138Z,8.90
2022-10-31T13:17:07.951Z,7.70
2022-10-31T13:27:12.574Z,7.20
2022-10-31T13:37:16.709Z,7.50
2022-10-31T13:47:21.752Z,6.60
2022-10-31T13:57:33.097Z,7.70
2022-10-31T14:07:43.892Z,7.40
2022-10-31T14:17:51.209Z,6.90
2022-10-31T14:27:55.715Z,6.80
2022-10-31T14:38:06.173Z,6.50
2022-10-31T14:48:12.733Z,7.40
2022-10-31T14:58:18.928Z,9.90
2022-10-31T15:08:44.505Z,8.30
2022-10-31T15:18:51.443Z,9.00
2022-10-31T15:29:03.109Z,10.50
2022-10-31T15:39:10.711Z,12.80
2022-10-31T15:49:16.706Z,11.10
2022-10-31T15:59:22.991Z,14.10
2022-10-31T16:09:27.098Z,14.40
2022-10-31T16:19:33.423Z,13.00
2022-10-31T16:29:42.936Z,15.10
2022-10-31T16:39:47.175Z,15.40
2022-10-31T16:49:51.052Z,18.40
2022-10-31T16:59:54.962Z,22.80
2022-10-31T17:09:58.542Z,20.10
2022-10-31T17:20:02.903Z,21.30
2022-10-31T17:30:08.455Z,24.80
2022-10-31T17:40:14.632Z,27.30
2022-10-31T17:50:19.208Z,32.30
2022-10-31T18:00:23.902Z,39.00
2022-10-31T18:10:27.642Z,46.60
2022-10-31T18:20:31.268Z,54.60
2022-10-31T18:30:38.666Z,59.00
2022-10-31T18:40:42.229Z,62.10
2022-10-31T18:50:47.180Z,64.70
2022-10-31T19:00:51.145Z,69.90
2022-10-31T19:10:54.799Z,89.30
2022-10-31T19:20:58.498Z,91.80
2022-10-31T19:31:02.731Z,91.00
2022-10-31T19:41:08.387Z,121.50
2022-10-31T19:51:13.820Z,138.60
2022-10-31T20:01:19.236Z,116.40
2022-10-31T20:11:24.493Z,123.10
2022-10-31T20:21:29.768Z,121.40
2022-10-31T20:31:36.033Z,111.60
2022-10-31T20:41:39.833Z,107.90
2022-10-31T20:51:43.364Z,103.70
2022-10-31T21:01:46.956Z,94.10
2022-10-31T21:11:50.634Z,88.80
2022-10-31T21:21:53.432Z,85.50
2022-10-31T21:31:57.184Z,86.70
2022-10-31T21:42:00.805Z,80.20
2022-10-31T21:52:04.568Z,77.40
2022-10-31T22:12:15.636Z,67.80
2022-10-31T22:22:19.329Z,66.60
2022-10-31T22:32:23.246Z,64.50
2022-10-31T22:42:27.183Z,65.50
2022-10-31T22:52:30.639Z,76.80
2022-10-31T23:02:34.241Z,69.10
2022-10-31T23:12:55.418Z,71.00
2022-10-31T23:22:59.215Z,69.10
2022-10-31T23:43:06.101Z,57.50
2022-10-31T23:53:09.631Z,59.50
